Norwegian Breakaway — C6ZJ3 — position and weather

sailwx.info

Track history (hours):
 
Tides and Currents Weather Stations Pressure Air Temp Water Temp Dewpoint Dewpoint Depression Visibility Wind Speed Wind Dir Waves Ship Positions

Norwegian Breakaway

Last reported at 2020-Jan-22 18:58 UTC. Time now 2020-Jan-24 06:03 UTC.
Position N 28°25' W 080°38'.

Length 325 m; draft 8.6 m.

Type: Passenger vessel. MMSI: 311050800.

Date/timePositionNaut miles runAvg speedWind from/ knotsBaromVisibWave heightAir tempDewpointWater temp
2020-Jan-22 18:58N 28°25' W 080°38'0 0.0
2020-Jan-22 14:58N 28°25' W 080°38'0 0.0
2020-Jan-22 12:51N 28°25' W 080°38'3 1.8
2020-Jan-22 11:00N 28°24' W 080°34'8912.8
2020-Jan-22 04:00N 27°03' W 079°52'714.3
2020-Jan-22 03:30N 26°56' W 079°50'6418.2
2020-Jan-22 00:00N 25°53' W 079°55'50618.7
2020-Jan-20 20:58N 20°29' W 086°59'0 0.0
2020-Jan-20 18:28N 20°29' W 086°59'0 0.0
2020-Jan-20 17:00N 20°29' W 086°59'0 0.0
2020-Jan-20 14:59N 20°29' W 086°59'0 0.0
2020-Jan-20 13:28N 20°29' W 086°59'1 0.6
2020-Jan-20 12:00N 20°29' W 086°60'21518.9
2020-Jan-20 00:38N 16°54' W 086°42'2219.6
2020-Jan-19 23:31N 16°32' W 086°42'16 6.6
2020-Jan-19 21:00N 16°19' W 086°33'0 0.0
2020-Jan-19 18:59N 16°19' W 086°33'0 0.0
2020-Jan-19 18:30N 16°19' W 086°33'0 0.0
2020-Jan-19 16:30N 16°19' W 086°33'0 0.0
2020-Jan-19 13:00N 16°19' W 086°33'12 6.2
2020-Jan-19 11:00N 16°14' W 086°45'714.3
2020-Jan-19 10:30N 16°16' W 086°52'713.8
2020-Jan-19 10:00N 16°17' W 086°59'1912.9
2020-Jan-19 08:30N 16°21' W 087°19'  
2020-Jan-16 17:20N 19°18' W 081°23'0 0.0
2020-Jan-16 16:50N 19°18' W 081°23'0 0.0
2020-Jan-16 13:56N 19°18' W 081°23'0 0.0
2020-Jan-16 13:00N 19°18' W 081°23'0 0.2
2020-Jan-16 12:30N 19°18' W 081°23'1 2.4
2020-Jan-16 12:00N 19°18' W 081°25'1110.6
2020-Jan-16 11:01N 19°12' W 081°15'2617.3
2020-Jan-16 09:31N 19°07' W 080°48'  
Track history (hours):
 
Tides and Currents Weather Stations Pressure Air Temp Water Temp Dewpoint Dewpoint Depression Visibility Wind Speed Wind Dir Waves Ship Positions

Norwegian Breakaway

Last reported at 2020-Jan-22 18:58 UTC. Time now 2020-Jan-24 06:03 UTC.
Position N 28°25' W 080°38'.

Length 325 m; draft 8.6 m.

Type: Passenger vessel. MMSI: 311050800.

Date/timePositionNaut miles runAvg speedWind from/ knotsBaromVisibWave heightAir tempDewpointWater temp
2020-Jan-22 18:58N 28°25' W 080°38'0 0.0
2020-Jan-22 14:58N 28°25' W 080°38'0 0.0
2020-Jan-22 12:51N 28°25' W 080°38'3 1.8
2020-Jan-22 11:00N 28°24' W 080°34'8912.8
2020-Jan-22 04:00N 27°03' W 079°52'714.3
2020-Jan-22 03:30N 26°56' W 079°50'6418.2
2020-Jan-22 00:00N 25°53' W 079°55'50618.7
2020-Jan-20 20:58N 20°29' W 086°59'0 0.0
2020-Jan-20 18:28N 20°29' W 086°59'0 0.0
2020-Jan-20 17:00N 20°29' W 086°59'0 0.0
2020-Jan-20 14:59N 20°29' W 086°59'0 0.0
2020-Jan-20 13:28N 20°29' W 086°59'1 0.6
2020-Jan-20 12:00N 20°29' W 086°60'21518.9
2020-Jan-20 00:38N 16°54' W 086°42'2219.6
2020-Jan-19 23:31N 16°32' W 086°42'16 6.6
2020-Jan-19 21:00N 16°19' W 086°33'0 0.0
2020-Jan-19 18:59N 16°19' W 086°33'0 0.0
2020-Jan-19 18:30N 16°19' W 086°33'0 0.0
2020-Jan-19 16:30N 16°19' W 086°33'0 0.0
2020-Jan-19 13:00N 16°19' W 086°33'12 6.2
2020-Jan-19 11:00N 16°14' W 086°45'714.3
2020-Jan-19 10:30N 16°16' W 086°52'713.8
2020-Jan-19 10:00N 16°17' W 086°59'1912.9
2020-Jan-19 08:30N 16°21' W 087°19'  
2020-Jan-16 17:20N 19°18' W 081°23'0 0.0
2020-Jan-16 16:50N 19°18' W 081°23'0 0.0
2020-Jan-16 13:56N 19°18' W 081°23'0 0.0
2020-Jan-16 13:00N 19°18' W 081°23'0 0.2
2020-Jan-16 12:30N 19°18' W 081°23'1 2.4
2020-Jan-16 12:00N 19°18' W 081°25'1110.6
2020-Jan-16 11:01N 19°12' W 081°15'2617.3
2020-Jan-16 09:31N 19°07' W 080°48'  

Dump ship's entire track history